sensor_id;sensor_type;location;lat;lon;timestamp;pressure;altitude;pressure_sealevel;temperature;humidity
54512;BME280;40419;47.438;19.026;2023-09-30T00:00:57;100318.94;;;15.55;100.00
54512;BME280;40419;47.438;19.026;2023-09-30T00:03:23;100320.19;;;15.53;100.00
54512;BME280;40419;47.438;19.026;2023-09-30T00:05:51;100316.88;;;15.51;100.00
54512;BME280;40419;47.438;19.026;2023-09-30T00:08:19;100310.97;;;15.54;100.00
54512;BME280;40419;47.438;19.026;2023-09-30T00:10:45;100316.44;;;15.29;100.00
54512;BME280;40419;47.438;19.026;2023-09-30T00:13:16;100315.31;;;15.36;100.00
54512;BME280;40419;47.438;19.026;2023-09-30T00:15:43;100312.53;;;15.43;100.00
54512;BME280;40419;47.438;19.026;2023-09-30T00:18:09;100305.63;;;15.40;100.00
54512;BME280;40419;47.438;19.026;2023-09-30T00:20:37;100311.09;;;15.40;100.00
54512;BME280;40419;47.438;19.026;2023-09-30T00:23:05;100308.34;;;15.40;100.00
54512;BME280;40419;47.438;19.026;2023-09-30T00:25:34;100309.72;;;15.50;100.00
54512;BME280;40419;47.438;19.026;2023-09-30T00:27:59;100302.69;;;15.42;100.00
54512;BME280;40419;47.438;19.026;2023-09-30T00:30:25;100305.28;;;15.05;100.00
54512;BME280;40419;47.438;19.026;2023-09-30T00:32:55;100290.47;;;14.62;100.00
54512;BME280;40419;47.438;19.026;2023-09-30T00:35:20;100298.19;;;14.72;100.00
54512;BME280;40419;47.438;19.026;2023-09-30T00:37:46;100293.22;;;14.62;100.00
54512;BME280;40419;47.438;19.026;2023-09-30T00:40:14;100287.34;;;14.59;100.00
54512;BME280;40419;47.438;19.026;2023-09-30T00:42:41;100292.16;;;14.18;100.00
54512;BME280;40419;47.438;19.026;2023-09-30T00:45:08;100292.84;;;14.00;100.00
54512;BME280;40419;47.438;19.026;2023-09-30T00:47:37;100286.38;;;14.01;100.00
54512;BME280;40419;47.438;19.026;2023-09-30T00:50:05;100296.72;;;13.65;100.00
54512;BME280;40419;47.438;19.026;2023-09-30T00:52:36;100283.53;;;13.62;100.00
54512;BME280;40419;47.438;19.026;2023-09-30T00:55:04;100285.22;;;13.43;100.00
54512;BME280;40419;47.438;19.026;2023-09-30T00:57:34;100283.06;;;13.72;100.00
54512;BME280;40419;47.438;19.026;2023-09-30T01:00:09;100280.16;;;13.74;100.00
54512;BME280;40419;47.438;19.026;2023-09-30T01:02:42;100282.25;;;13.78;100.00
54512;BME280;40419;47.438;19.026;2023-09-30T01:05:09;100279.63;;;14.04;100.00
54512;BME280;40419;47.438;19.026;2023-09-30T01:07:35;100283.28;;;13.71;100.00
54512;BME280;40419;47.438;19.026;2023-09-30T01:10:01;100277.25;;;13.55;100.00
54512;BME280;40419;47.438;19.026;2023-09-30T01:12:32;100276.66;;;13.46;100.00
54512;BME280;40419;47.438;19.026;2023-09-30T01:15:01;100284.78;;;13.60;100.00
54512;BME280;40419;47.438;19.026;2023-09-30T01:17:33;100283.97;;;13.59;100.00
54512;BME280;40419;47.438;19.026;2023-09-30T01:20:02;100291.94;;;13.41;100.00
54512;BME280;40419;47.438;19.026;2023-09-30T01:22:32;100290.63;;;13.70;100.00
54512;BME280;40419;47.438;19.026;2023-09-30T01:25:00;100287.91;;;13.77;100.00
54512;BME280;40419;47.438;19.026;2023-09-30T01:27:28;100286.41;;;13.88;100.00
54512;BME280;40419;47.438;19.026;2023-09-30T01:29:55;100284.63;;;14.13;100.00
54512;BME280;40419;47.438;19.026;2023-09-30T01:32:25;100282.06;;;14.25;100.00
54512;BME280;40419;47.438;19.026;2023-09-30T01:34:51;100281.00;;;14.33;100.00
54512;BME280;40419;47.438;19.026;2023-09-30T01:37:19;100273.34;;;14.48;100.00
54512;BME280;40419;47.438;19.026;2023-09-30T01:39:44;100277.91;;;14.61;100.00
54512;BME280;40419;47.438;19.026;2023-09-30T01:42:16;100268.38;;;14.77;100.00
54512;BME280;40419;47.438;19.026;2023-09-30T01:44:44;100278.63;;;14.82;100.00
54512;BME280;40419;47.438;19.026;2023-09-30T01:47:14;100270.88;;;14.79;100.00
54512;BME280;40419;47.438;19.026;2023-09-30T01:49:39;100278.69;;;14.75;100.00
54512;BME280;40419;47.438;19.026;2023-09-30T01:52:05;100281.19;;;14.77;100.00
54512;BME280;40419;47.438;19.026;2023-09-30T01:54:33;100270.94;;;14.72;100.00
54512;BME280;40419;47.438;19.026;2023-09-30T01:57:01;100274.94;;;14.69;100.00
54512;BME280;40419;47.438;19.026;2023-09-30T01:59:26;100275.94;;;14.75;100.00
54512;BME280;40419;47.438;19.026;2023-09-30T02:01:55;100271.38;;;14.69;100.00
54512;BME280;40419;47.438;19.026;2023-09-30T02:04:20;100273.16;;;14.82;100.00
54512;BME280;40419;47.438;19.026;2023-09-30T02:06:48;100273.47;;;14.67;100.00
54512;BME280;40419;47.438;19.026;2023-09-30T02:09:14;100272.47;;;14.54;100.00
54512;BME280;40419;47.438;19.026;2023-09-30T02:11:42;100261.97;;;14.58;100.00
54512;BME280;40419;47.438;19.026;2023-09-30T02:14:12;100265.19;;;14.48;100.00
54512;BME280;40419;47.438;19.026;2023-09-30T02:16:41;100270.41;;;14.50;100.00
54512;BME280;40419;47.438;19.026;2023-09-30T02:19:09;100270.47;;;14.36;100.00
54512;BME280;40419;47.438;19.026;2023-09-30T02:21:38;100267.22;;;14.21;100.00
54512;BME280;40419;47.438;19.026;2023-09-30T02:24:08;100265.94;;;14.24;100.00
54512;BME280;40419;47.438;19.026;2023-09-30T02:26:36;100262.09;;;14.38;100.00
54512;BME280;40419;47.438;19.026;2023-09-30T02:29:04;100257.78;;;14.24;100.00
54512;BME280;40419;47.438;19.026;2023-09-30T02:31:33;100260.63;;;14.35;100.00
54512;BME280;40419;47.438;19.026;2023-09-30T02:33:59;100255.63;;;14.32;100.00
54512;BME280;40419;47.438;19.026;2023-09-30T02:36:27;100253.69;;;14.46;100.00
54512;BME280;40419;47.438;19.026;2023-09-30T02:38:55;100253.03;;;14.51;100.00
54512;BME280;40419;47.438;19.026;2023-09-30T02:41:20;100251.72;;;14.53;100.00
54512;BME280;40419;47.438;19.026;2023-09-30T02:43:46;100256.56;;;14.51;100.00
54512;BME280;40419;47.438;19.026;2023-09-30T02:46:14;100256.97;;;14.62;100.00
54512;BME280;40419;47.438;19.026;2023-09-30T02:48:42;100256.28;;;14.60;100.00
54512;BME280;40419;47.438;19.026;2023-09-30T02:54:55;100255.09;;;14.49;100.00
54512;BME280;40419;47.438;19.026;2023-09-30T02:57:38;100254.47;;;14.15;100.00
54512;BME280;40419;47.438;19.026;2023-09-30T03:00:09;100257.03;;;13.96;100.00
54512;BME280;40419;47.438;19.026;2023-09-30T03:10:25;100264.13;;;13.45;100.00
54512;BME280;40419;47.438;19.026;2023-09-30T03:13:01;100264.09;;;13.59;100.00
54512;BME280;40419;47.438;19.026;2023-09-30T03:15:27;100266.75;;;13.79;100.00
54512;BME280;40419;47.438;19.026;2023-09-30T03:17:53;100256.00;;;13.97;100.00
54512;BME280;40419;47.438;19.026;2023-09-30T03:20:33;100257.63;;;14.12;100.00
54512;BME280;40419;47.438;19.026;2023-09-30T03:23:14;100269.31;;;14.19;100.00
54512;BME280;40419;47.438;19.026;2023-09-30T03:30:06;100265.53;;;13.61;100.00
54512;BME280;40419;47.438;19.026;2023-09-30T03:36:45;100272.88;;;13.61;100.00
54512;BME280;40419;47.438;19.026;2023-09-30T03:39:10;100272.69;;;13.42;100.00
54512;BME280;40419;47.438;19.026;2023-09-30T03:41:42;100272.69;;;13.36;100.00
54512;BME280;40419;47.438;19.026;2023-09-30T03:44:08;100278.34;;;13.41;100.00
54512;BME280;40419;47.438;19.026;2023-09-30T03:46:38;100267.88;;;13.44;100.00
54512;BME280;40419;47.438;19.026;2023-09-30T03:49:06;100267.63;;;13.33;100.00
54512;BME280;40419;47.438;19.026;2023-09-30T03:51:36;100269.75;;;13.17;100.00
54512;BME280;40419;47.438;19.026;2023-09-30T03:54:02;100267.44;;;12.87;100.00
54512;BME280;40419;47.438;19.026;2023-09-30T03:56:31;100277.22;;;12.62;100.00
54512;BME280;40419;47.438;19.026;2023-09-30T03:58:59;100268.47;;;12.59;100.00
54512;BME280;40419;47.438;19.026;2023-09-30T04:01:29;100269.50;;;12.58;100.00
54512;BME280;40419;47.438;19.026;2023-09-30T04:03:57;100264.88;;;12.59;100.00
54512;BME280;40419;47.438;19.026;2023-09-30T04:06:25;100273.50;;;12.83;100.00
54512;BME280;40419;47.438;19.026;2023-09-30T04:08:53;100264.94;;;12.86;100.00
54512;BME280;40419;47.438;19.026;2023-09-30T04:11:21;100273.75;;;12.88;100.00
54512;BME280;40419;47.438;19.026;2023-09-30T04:13:48;100276.22;;;13.03;100.00
54512;BME280;40419;47.438;19.026;2023-09-30T04:16:17;100271.63;;;12.97;100.00
54512;BME280;40419;47.438;19.026;2023-09-30T04:18:49;100271.84;;;13.08;100.00
54512;BME280;40419;47.438;19.026;2023-09-30T04:21:15;100267.22;;;12.75;100.00
54512;BME280;40419;47.438;19.026;2023-09-30T04:23:43;100271.41;;;12.71;100.00
54512;BME280;40419;47.438;19.026;2023-09-30T04:26:09;100269.53;;;12.65;100.00
54512;BME280;40419;47.438;19.026;2023-09-30T04:28:39;100272.22;;;12.52;100.00
54512;BME280;40419;47.438;19.026;2023-09-30T04:31:07;100274.66;;;12.33;100.00
54512;BME280;40419;47.438;19.026;2023-09-30T04:33:35;100275.19;;;12.09;100.00
54512;BME280;40419;47.438;19.026;2023-09-30T04:36:03;100286.16;;;12.35;100.00
54512;BME280;40419;47.438;19.026;2023-09-30T04:38:38;100289.38;;;12.72;100.00
54512;BME280;40419;47.438;19.026;2023-09-30T04:41:03;100283.09;;;12.65;100.00
54512;BME280;40419;47.438;19.026;2023-09-30T04:43:33;100293.16;;;12.85;100.00
54512;BME280;40419;47.438;19.026;2023-09-30T04:45:58;100287.75;;;13.05;100.00
54512;BME280;40419;47.438;19.026;2023-09-30T04:48:24;100291.91;;;13.21;100.00
54512;BME280;40419;47.438;19.026;2023-09-30T04:50:54;100295.69;;;13.06;100.00
54512;BME280;40419;47.438;19.026;2023-09-30T04:53:23;100290.25;;;13.33;100.00
54512;BME280;40419;47.438;19.026;2023-09-30T04:55:53;100293.81;;;13.47;100.00
54512;BME280;40419;47.438;19.026;2023-09-30T04:58:19;100290.63;;;13.70;100.00
54512;BME280;40419;47.438;19.026;2023-09-30T05:00:44;100300.63;;;13.90;100.00
54512;BME280;40419;47.438;19.026;2023-09-30T05:03:10;100290.94;;;14.07;100.00
54512;BME280;40419;47.438;19.026;2023-09-30T05:05:35;100303.88;;;14.18;100.00
54512;BME280;40419;47.438;19.026;2023-09-30T05:08:01;100290.09;;;14.13;100.00
54512;BME280;40419;47.438;19.026;2023-09-30T05:10:27;100301.13;;;13.67;100.00
54512;BME280;40419;47.438;19.026;2023-09-30T05:12:52;100311.56;;;13.70;100.00
54512;BME280;40419;47.438;19.026;2023-09-30T05:15:28;100306.03;;;13.96;100.00
54512;BME280;40419;47.438;19.026;2023-09-30T05:22:09;100312.56;;;13.89;100.00
54512;BME280;40419;47.438;19.026;2023-09-30T05:24:35;100308.22;;;13.74;100.00
54512;BME280;40419;47.438;19.026;2023-09-30T05:27:00;100313.44;;;13.76;100.00
54512;BME280;40419;47.438;19.026;2023-09-30T05:29:29;100318.69;;;13.64;100.00
54512;BME280;40419;47.438;19.026;2023-09-30T05:31:58;100310.03;;;13.87;100.00
54512;BME280;40419;47.438;19.026;2023-09-30T05:34:42;100317.19;;;13.81;100.00
54512;BME280;40419;47.438;19.026;2023-09-30T05:41:10;100327.78;;;14.16;100.00
54512;BME280;40419;47.438;19.026;2023-09-30T05:43:39;100318.91;;;14.34;100.00
54512;BME280;40419;47.438;19.026;2023-09-30T05:46:06;100317.97;;;14.54;100.00
54512;BME280;40419;47.438;19.026;2023-09-30T05:48:31;100323.16;;;14.69;100.00
54512;BME280;40419;47.438;19.026;2023-09-30T05:51:03;100320.88;;;14.59;100.00
54512;BME280;40419;47.438;19.026;2023-09-30T05:53:47;100327.19;;;14.53;100.00
54512;BME280;40419;47.438;19.026;2023-09-30T06:00:06;100323.19;;;14.94;100.00
54512;BME280;40419;47.438;19.026;2023-09-30T06:02:52;100330.91;;;15.04;100.00
54512;BME280;40419;47.438;19.026;2023-09-30T06:05:18;100334.84;;;15.08;100.00
54512;BME280;40419;47.438;19.026;2023-09-30T06:07:48;100330.34;;;15.46;100.00
54512;BME280;40419;47.438;19.026;2023-09-30T06:10:13;100331.22;;;15.39;100.00
54512;BME280;40419;47.438;19.026;2023-09-30T06:12:46;100335.78;;;15.46;100.00
54512;BME280;40419;47.438;19.026;2023-09-30T06:15:13;100337.00;;;15.75;100.00
54512;BME280;40419;47.438;19.026;2023-09-30T06:17:44;100339.72;;;15.75;100.00
54512;BME280;40419;47.438;19.026;2023-09-30T06:20:10;100338.41;;;15.84;100.00
54512;BME280;40419;47.438;19.026;2023-09-30T06:22:44;100331.13;;;15.97;100.00
54512;BME280;40419;47.438;19.026;2023-09-30T06:25:17;100335.09;;;15.82;100.00
54512;BME280;40419;47.438;19.026;2023-09-30T06:27:49;100331.34;;;15.95;100.00
54512;BME280;40419;47.438;19.026;2023-09-30T06:30:20;100333.41;;;16.00;100.00
54512;BME280;40419;47.438;19.026;2023-09-30T06:40:21;100337.41;;;16.34;100.00
54512;BME280;40419;47.438;19.026;2023-09-30T06:42:49;100327.19;;;16.60;100.00
54512;BME280;40419;47.438;19.026;2023-09-30T06:45:17;100344.66;;;16.59;100.00
54512;BME280;40419;47.438;19.026;2023-09-30T06:47:46;100340.88;;;16.60;100.00
54512;BME280;40419;47.438;19.026;2023-09-30T06:50:14;100336.56;;;16.52;100.00
54512;BME280;40419;47.438;19.026;2023-09-30T06:52:47;100342.09;;;16.45;100.00
54512;BME280;40419;47.438;19.026;2023-09-30T06:55:15;100348.09;;;16.54;100.00
54512;BME280;40419;47.438;19.026;2023-09-30T06:57:44;100343.97;;;16.63;100.00
54512;BME280;40419;47.438;19.026;2023-09-30T07:00:17;100346.84;;;16.69;100.00
54512;BME280;40419;47.438;19.026;2023-09-30T07:02:43;100351.94;;;16.65;100.00
54512;BME280;40419;47.438;19.026;2023-09-30T07:05:28;100355.13;;;16.62;100.00
54512;BME280;40419;47.438;19.026;2023-09-30T07:07:56;100346.00;;;16.68;100.00
54512;BME280;40419;47.438;19.026;2023-09-30T07:10:58;100351.41;;;16.75;100.00
54512;BME280;40419;47.438;19.026;2023-09-30T07:13:23;100345.09;;;16.74;100.00
54512;BME280;40419;47.438;19.026;2023-09-30T07:15:51;100352.59;;;16.79;100.00
54512;BME280;40419;47.438;19.026;2023-09-30T07:18:17;100352.91;;;16.71;100.00
54512;BME280;40419;47.438;19.026;2023-09-30T07:20:44;100353.66;;;16.78;100.00
54512;BME280;40419;47.438;19.026;2023-09-30T07:23:12;100359.50;;;16.81;100.00
54512;BME280;40419;47.438;19.026;2023-09-30T07:25:39;100365.34;;;16.85;100.00
54512;BME280;40419;47.438;19.026;2023-09-30T07:28:13;100364.91;;;16.88;100.00
54512;BME280;40419;47.438;19.026;2023-09-30T07:35:07;100373.06;;;17.07;100.00
54512;BME280;40419;47.438;19.026;2023-09-30T07:37:35;100367.22;;;17.15;100.00
54512;BME280;40419;47.438;19.026;2023-09-30T07:40:01;100367.84;;;17.17;100.00
54512;BME280;40419;47.438;19.026;2023-09-30T07:42:26;100378.22;;;17.27;100.00
54512;BME280;40419;47.438;19.026;2023-09-30T07:44:56;100373.25;;;17.35;100.00
54512;BME280;40419;47.438;19.026;2023-09-30T07:47:24;100374.69;;;17.38;100.00
54512;BME280;40419;47.438;19.026;2023-09-30T07:49:54;100379.81;;;17.58;100.00
54512;BME280;40419;47.438;19.026;2023-09-30T07:52:19;100371.00;;;17.80;100.00
54512;BME280;40419;47.438;19.026;2023-09-30T07:54:45;100375.22;;;18.06;100.00
54512;BME280;40419;47.438;19.026;2023-09-30T07:57:14;100373.50;;;18.29;100.00
54512;BME280;40419;47.438;19.026;2023-09-30T07:59:40;100367.75;;;18.42;100.00
54512;BME280;40419;47.438;19.026;2023-09-30T08:02:08;100366.63;;;18.55;100.00
54512;BME280;40419;47.438;19.026;2023-09-30T08:04:36;100367.31;;;18.62;100.00
54512;BME280;40419;47.438;19.026;2023-09-30T08:07:06;100374.09;;;18.71;100.00
54512;BME280;40419;47.438;19.026;2023-09-30T08:09:31;100374.03;;;18.83;100.00
54512;BME280;40419;47.438;19.026;2023-09-30T08:11:59;100372.94;;;18.96;100.00
54512;BME280;40419;47.438;19.026;2023-09-30T08:14:25;100386.41;;;18.98;100.00
54512;BME280;40419;47.438;19.026;2023-09-30T08:16:50;100382.22;;;19.07;100.00
54512;BME280;40419;47.438;19.026;2023-09-30T08:19:16;100385.84;;;19.12;100.00
54512;BME280;40419;47.438;19.026;2023-09-30T08:21:44;100376.06;;;19.17;100.00
54512;BME280;40419;47.438;19.026;2023-09-30T08:24:10;100376.06;;;19.17;100.00
54512;BME280;40419;47.438;19.026;2023-09-30T08:26:35;100377.63;;;19.12;100.00
54512;BME280;40419;47.438;19.026;2023-09-30T08:29:06;100382.31;;;19.29;99.73
54512;BME280;40419;47.438;19.026;2023-09-30T08:31:36;100380.06;;;19.26;100.00
54512;BME280;40419;47.438;19.026;2023-09-30T08:34:07;100375.66;;;19.25;97.41
54512;BME280;40419;47.438;19.026;2023-09-30T08:36:38;100372.81;;;19.37;94.28
54512;BME280;40419;47.438;19.026;2023-09-30T08:39:03;100373.81;;;19.30;94.40
54512;BME280;40419;47.438;19.026;2023-09-30T08:41:35;100368.00;;;19.27;95.25
54512;BME280;40419;47.438;19.026;2023-09-30T08:44:03;100363.19;;;19.34;93.20
54512;BME280;40419;47.438;19.026;2023-09-30T08:46:34;100365.63;;;19.47;94.28
54512;BME280;40419;47.438;19.026;2023-09-30T08:49:01;100359.63;;;19.51;95.52
54512;BME280;40419;47.438;19.026;2023-09-30T08:51:28;100364.50;;;19.65;93.96
54512;BME280;40419;47.438;19.026;2023-09-30T08:54:00;100361.22;;;20.03;90.58
54512;BME280;40419;47.438;19.026;2023-09-30T08:56:31;100349.78;;;20.11;89.66
54512;BME280;40419;47.438;19.026;2023-09-30T08:59:01;100346.94;;;20.23;90.37
54512;BME280;40419;47.438;19.026;2023-09-30T09:01:34;100360.69;;;20.45;90.69
54512;BME280;40419;47.438;19.026;2023-09-30T09:04:02;100359.19;;;20.15;86.47
54512;BME280;40419;47.438;19.026;2023-09-30T09:06:30;100362.16;;;20.08;90.40
54512;BME280;40419;47.438;19.026;2023-09-30T09:09:17;100351.91;;;20.04;94.74
54512;BME280;40419;47.438;19.026;2023-09-30T09:11:44;100362.66;;;20.05;94.75
54512;BME280;40419;47.438;19.026;2023-09-30T09:14:12;100356.19;;;20.16;93.83
54512;BME280;40419;47.438;19.026;2023-09-30T09:16:50;100353.66;;;20.10;95.52
54512;BME280;40419;47.438;19.026;2023-09-30T09:19:18;100354.00;;;19.96;95.64
54512;BME280;40419;47.438;19.026;2023-09-30T09:21:59;100358.19;;;19.99;93.59
54512;BME280;40419;47.438;19.026;2023-09-30T09:24:35;100360.84;;;19.94;94.79
54512;BME280;40419;47.438;19.026;2023-09-30T09:29:30;100356.91;;;19.90;93.59
54512;BME280;40419;47.438;19.026;2023-09-30T09:32:09;100362.59;;;19.66;94.86
54512;BME280;40419;47.438;19.026;2023-09-30T09:34:38;100355.84;;;19.74;96.99
54512;BME280;40419;47.438;19.026;2023-09-30T09:37:21;100353.84;;;19.69;97.13
54512;BME280;40419;47.438;19.026;2023-09-30T09:42:29;100348.13;;;19.54;96.92
54512;BME280;40419;47.438;19.026;2023-09-30T09:45:04;100344.28;;;19.55;98.68
54512;BME280;40419;47.438;19.026;2023-09-30T09:47:35;100347.53;;;19.52;96.40
54512;BME280;40419;47.438;19.026;2023-09-30T09:50:04;100358.38;;;19.58;96.52
54512;BME280;40419;47.438;19.026;2023-09-30T09:52:34;100352.63;;;19.60;95.12
54512;BME280;40419;47.438;19.026;2023-09-30T09:55:02;100348.53;;;19.45;96.38
54512;BME280;40419;47.438;19.026;2023-09-30T09:57:30;100348.69;;;19.56;93.35
54512;BME280;40419;47.438;19.026;2023-09-30T09:59:59;100347.13;;;19.43;95.16
54512;BME280;40419;47.438;19.026;2023-09-30T10:02:27;100349.19;;;19.53;93.84
54512;BME280;40419;47.438;19.026;2023-09-30T10:04:54;100349.78;;;19.55;93.36
54512;BME280;40419;47.438;19.026;2023-09-30T10:07:25;100346.38;;;19.64;93.24
54512;BME280;40419;47.438;19.026;2023-09-30T10:09:55;100342.22;;;19.62;93.28
54512;BME280;40419;47.438;19.026;2023-09-30T10:12:25;100340.53;;;19.61;94.42
54512;BME280;40419;47.438;19.026;2023-09-30T10:14:52;100344.03;;;19.73;91.27
54512;BME280;40419;47.438;19.026;2023-09-30T10:17:17;100337.94;;;19.88;91.12
54512;BME280;40419;47.438;19.026;2023-09-30T10:20:06;100337.13;;;19.88;93.43
54512;BME280;40419;47.438;19.026;2023-09-30T10:22:32;100344.19;;;20.00;91.87
54512;BME280;40419;47.438;19.026;2023-09-30T10:25:00;100331.25;;;20.01;96.33
54512;BME280;40419;47.438;19.026;2023-09-30T10:40:53;100321.47;;;20.10;94.60
54512;BME280;40419;47.438;19.026;2023-09-30T10:43:35;100328.06;;;20.09;94.39
54512;BME280;40419;47.438;19.026;2023-09-30T10:48:55;100324.09;;;20.00;93.96
54512;BME280;40419;47.438;19.026;2023-09-30T10:51:23;100314.47;;;19.97;95.54
54512;BME280;40419;47.438;19.026;2023-09-30T10:53:55;100320.63;;;19.88;93.75
54512;BME280;40419;47.438;19.026;2023-09-30T10:56:33;100312.25;;;19.77;95.40
54512;BME280;40419;47.438;19.026;2023-09-30T10:59:02;100312.25;;;19.77;94.20
54512;BME280;40419;47.438;19.026;2023-09-30T11:01:34;100318.66;;;19.66;96.89
54512;BME280;40419;47.438;19.026;2023-09-30T11:04:03;100312.78;;;19.40;99.78
54512;BME280;40419;47.438;19.026;2023-09-30T11:06:30;100310.09;;;19.45;98.37
54512;BME280;40419;47.438;19.026;2023-09-30T11:09:05;100304.03;;;19.43;100.00
54512;BME280;40419;47.438;19.026;2023-09-30T11:11:42;100309.44;;;19.38;100.00
54512;BME280;40419;47.438;19.026;2023-09-30T11:16:48;100309.84;;;19.30;100.00
54512;BME280;40419;47.438;19.026;2023-09-30T11:19:20;100310.00;;;19.06;100.00
54512;BME280;40419;47.438;19.026;2023-09-30T11:21:48;100313.50;;;19.02;100.00
54512;BME280;40419;47.438;19.026;2023-09-30T11:24:15;100308.63;;;19.04;100.00
54512;BME280;40419;47.438;19.026;2023-09-30T11:26:40;100306.75;;;18.92;100.00
54512;BME280;40419;47.438;19.026;2023-09-30T11:29:08;100314.16;;;18.92;100.00
54512;BME280;40419;47.438;19.026;2023-09-30T11:31:44;100313.91;;;18.93;100.00
54512;BME280;40419;47.438;19.026;2023-09-30T11:34:10;100312.25;;;18.92;100.00
54512;BME280;40419;47.438;19.026;2023-09-30T11:36:40;100318.72;;;18.86;100.00
54512;BME280;40419;47.438;19.026;2023-09-30T11:39:24;100315.91;;;18.98;100.00
54512;BME280;40419;47.438;19.026;2023-09-30T11:41:50;100314.56;;;19.01;100.00
54512;BME280;40419;47.438;19.026;2023-09-30T11:44:16;100318.56;;;18.93;100.00
54512;BME280;40419;47.438;19.026;2023-09-30T11:46:58;100318.75;;;19.03;100.00
54512;BME280;40419;47.438;19.026;2023-09-30T11:49:39;100319.66;;;19.09;100.00
54512;BME280;40419;47.438;19.026;2023-09-30T11:52:12;100313.31;;;18.91;100.00
54512;BME280;40419;47.438;19.026;2023-09-30T11:54:43;100318.56;;;18.93;100.00
54512;BME280;40419;47.438;19.026;2023-09-30T11:57:11;100322.78;;;19.01;100.00
54512;BME280;40419;47.438;19.026;2023-09-30T11:59:38;100306.59;;;18.99;100.00
54512;BME280;40419;47.438;19.026;2023-09-30T12:02:06;100323.97;;;19.05;100.00
54512;BME280;40419;47.438;19.026;2023-09-30T12:04:34;100325.41;;;19.07;100.00
54512;BME280;40419;47.438;19.026;2023-09-30T12:07:00;100316.59;;;19.05;100.00
54512;BME280;40419;47.438;19.026;2023-09-30T12:09:36;100316.41;;;18.95;100.00
54512;BME280;40419;47.438;19.026;2023-09-30T12:12:05;100313.31;;;18.91;100.00
54512;BME280;40419;47.438;19.026;2023-09-30T12:14:36;100312.28;;;18.81;100.00
54512;BME280;40419;47.438;19.026;2023-09-30T12:17:02;100314.44;;;18.78;100.00
54512;BME280;40419;47.438;19.026;2023-09-30T12:19:28;100315.97;;;18.86;100.00
54512;BME280;40419;47.438;19.026;2023-09-30T12:21:55;100314.31;;;18.73;100.00
54512;BME280;40419;47.438;19.026;2023-09-30T12:24:23;100319.88;;;18.62;100.00
54512;BME280;40419;47.438;19.026;2023-09-30T12:26:51;100315.16;;;18.57;100.00
54512;BME280;40419;47.438;19.026;2023-09-30T12:29:19;100313.09;;;18.52;100.00
54512;BME280;40419;47.438;19.026;2023-09-30T12:31:51;100316.47;;;18.54;100.00
54512;BME280;40419;47.438;19.026;2023-09-30T12:34:17;100320.63;;;18.57;100.00
54512;BME280;40419;47.438;19.026;2023-09-30T12:36:45;100329.31;;;18.54;100.00
54512;BME280;40419;47.438;19.026;2023-09-30T12:39:11;100318.75;;;18.46;100.00
54512;BME280;40419;47.438;19.026;2023-09-30T12:41:41;100324.31;;;18.51;100.00
54512;BME280;40419;47.438;19.026;2023-09-30T12:44:08;100323.91;;;18.42;100.00
54512;BME280;40419;47.438;19.026;2023-09-30T12:46:38;100318.06;;;18.38;100.00
54512;BME280;40419;47.438;19.026;2023-09-30T12:49:06;100312.19;;;18.47;100.00
54512;BME280;40419;47.438;19.026;2023-09-30T12:51:38;100316.22;;;18.56;100.00
54512;BME280;40419;47.438;19.026;2023-09-30T12:54:06;100321.34;;;18.52;100.00
54512;BME280;40419;47.438;19.026;2023-09-30T12:56:34;100320.47;;;18.64;100.00
54512;BME280;40419;47.438;19.026;2023-09-30T12:59:00;100326.19;;;18.62;100.00
54512;BME280;40419;47.438;19.026;2023-09-30T13:01:28;100324.03;;;18.64;100.00
54512;BME280;40419;47.438;19.026;2023-09-30T13:03:54;100318.78;;;18.63;100.00
54512;BME280;40419;47.438;19.026;2023-09-30T13:06:21;100320.22;;;18.65;100.00
54512;BME280;40419;47.438;19.026;2023-09-30T13:08:49;100312.81;;;18.66;100.00
54512;BME280;40419;47.438;19.026;2023-09-30T13:11:15;100317.16;;;18.62;100.00
54512;BME280;40419;47.438;19.026;2023-09-30T13:13:45;100312.69;;;18.72;100.00
54512;BME280;40419;47.438;19.026;2023-09-30T13:16:11;100309.69;;;18.74;100.00
54512;BME280;40419;47.438;19.026;2023-09-30T13:18:36;100304.91;;;18.81;100.00
54512;BME280;40419;47.438;19.026;2023-09-30T13:21:03;100299.06;;;18.77;100.00
54512;BME280;40419;47.438;19.026;2023-09-30T13:23:31;100301.44;;;18.86;100.00
54512;BME280;40419;47.438;19.026;2023-09-30T13:25:58;100298.19;;;18.89;100.00
54512;BME280;40419;47.438;19.026;2023-09-30T13:28:29;100287.97;;;19.01;100.00
54512;BME280;40419;47.438;19.026;2023-09-30T13:31:02;100298.47;;;19.04;100.00
54512;BME280;40419;47.438;19.026;2023-09-30T13:33:28;100291.72;;;19.12;100.00
54512;BME280;40419;47.438;19.026;2023-09-30T13:35:56;100294.78;;;19.16;100.00
54512;BME280;40419;47.438;19.026;2023-09-30T13:38:24;100300.44;;;19.26;100.00
54512;BME280;40419;47.438;19.026;2023-09-30T13:40:50;100293.63;;;19.28;100.00
54512;BME280;40419;47.438;19.026;2023-09-30T13:43:20;100283.47;;;19.46;100.00
54512;BME280;40419;47.438;19.026;2023-09-30T13:45:48;100286.19;;;19.46;100.00
54512;BME280;40419;47.438;19.026;2023-09-30T13:48:15;100277.44;;;19.66;100.00
54512;BME280;40419;47.438;19.026;2023-09-30T13:50:45;100279.28;;;19.60;100.00